Terminal Aerodrome Forecast
Issued by NWS Jackson, KY

Home | Current Version | Previous Version | Text Only | Print | Product List | Glossary On
Versions: 1 2 3 4 5 6 7 8 9 10 11 12 13 14 15 16 17 18 19 20
000
FTUS43 KJKL 061555 AAE
TAFJKL
TAF AMD
KJKL 061555Z 0616/0712 15005KT 5SM -RA BR SCT002 BKN007 OVC100
     FM061800 14005KT 3SM RA OVC008
     FM062200 28008KT 5SM -DZ VCSH OVC006
     FM070500 29007KT P6SM OVC015=

USA.gov is the U.S. government's official web portal to all federal, state and local government web resources and services.